createdAt,value
2018-01-15T00:00:04.528Z,1.90
2018-01-15T00:02:35.247Z,2.17
2018-01-15T00:05:04.656Z,2.33
2018-01-15T00:07:34.851Z,2.13
2018-01-15T00:10:04.343Z,1.63
2018-01-15T00:12:34.262Z,2.47
2018-01-15T00:15:04.233Z,2.43
2018-01-15T00:17:34.407Z,2.03
2018-01-15T00:20:04.686Z,2.00
2018-01-15T00:22:34.553Z,2.60
2018-01-15T00:25:09.576Z,2.40
2018-01-15T00:27:40.263Z,2.80
2018-01-15T00:30:12.057Z,2.27
2018-01-15T00:32:42.324Z,1.80
2018-01-15T00:35:12.797Z,2.67
2018-01-15T00:37:42.467Z,2.25
2018-01-15T00:40:14.513Z,2.20
2018-01-15T00:42:43.990Z,1.90
2018-01-15T00:45:13.577Z,1.63
2018-01-15T00:47:43.675Z,2.00
2018-01-15T00:50:14.327Z,2.40
2018-01-15T00:52:44.763Z,2.23
2018-01-15T00:55:14.340Z,1.92
2018-01-15T00:57:44.620Z,1.70
2018-01-15T01:00:14.881Z,1.73
2018-01-15T01:02:44.567Z,2.47
2018-01-15T01:05:15.301Z,1.70
2018-01-15T01:07:46.742Z,2.20
2018-01-15T01:10:16.458Z,1.73
2018-01-15T01:12:46.779Z,1.75
2018-01-15T01:15:16.458Z,2.55
2018-01-15T01:17:45.880Z,2.07
2018-01-15T01:22:50.049Z,1.95
2018-01-15T01:25:20.960Z,2.93
2018-01-15T01:27:51.868Z,3.50
2018-01-15T01:30:22.141Z,4.72
2018-01-15T01:32:55.169Z,9.50
2018-01-15T01:35:27.521Z,7.82
2018-01-15T01:37:59.180Z,12.98
2018-01-15T01:40:29.937Z,4.83
2018-01-15T01:43:00.900Z,3.17
2018-01-15T01:45:31.554Z,3.27
2018-01-15T01:48:01.253Z,2.57
2018-01-15T01:50:30.342Z,3.45
2018-01-15T01:53:00.742Z,3.37
2018-01-15T01:55:31.261Z,2.37
2018-01-15T01:58:01.789Z,3.53
2018-01-15T02:00:31.379Z,4.53
2018-01-15T02:03:01.933Z,3.40
2018-01-15T02:05:32.527Z,7.40
2018-01-15T02:08:02.741Z,4.97
2018-01-15T02:10:32.479Z,2.50
2018-01-15T02:13:02.036Z,3.60
2018-01-15T02:15:31.346Z,3.20
2018-01-15T02:18:07.421Z,2.47
2018-01-15T02:20:37.430Z,3.50
2018-01-15T02:23:07.625Z,2.57
2018-01-15T02:25:38.810Z,2.47
2018-01-15T02:28:09.264Z,2.30
2018-01-15T02:30:39.438Z,2.30
2018-01-15T02:33:09.793Z,2.70
2018-01-15T02:35:42.798Z,3.30
2018-01-15T02:38:13.698Z,2.20
2018-01-15T02:40:45.007Z,3.50
2018-01-15T02:43:17.005Z,3.20
2018-01-15T02:45:48.113Z,2.80
2018-01-15T02:48:18.444Z,3.33
2018-01-15T02:50:48.087Z,2.97
2018-01-15T02:53:17.577Z,3.43
2018-01-15T02:55:47.118Z,4.47
2018-01-15T02:58:17.257Z,3.30
2018-01-15T03:00:47.482Z,3.77
2018-01-15T03:03:17.631Z,4.47
2018-01-15T03:05:48.204Z,5.03
2018-01-15T03:08:17.689Z,2.87
2018-01-15T03:10:47.309Z,3.00
2018-01-15T03:13:16.649Z,4.27
2018-01-15T03:15:46.720Z,3.60
2018-01-15T03:18:17.956Z,3.55
2018-01-15T03:20:49.872Z,2.87
2018-01-15T03:25:58.867Z,2.58
2018-01-15T03:28:29.769Z,2.95
2018-01-15T03:33:36.223Z,4.57
2018-01-15T03:36:05.875Z,3.70
2018-01-15T03:38:35.679Z,3.28
2018-01-15T03:41:05.472Z,2.70
2018-01-15T03:43:35.331Z,2.60
2018-01-15T03:46:07.204Z,2.50
2018-01-15T03:48:36.563Z,4.93
2018-01-15T03:51:06.346Z,5.60
2018-01-15T03:53:36.526Z,2.50
2018-01-15T03:56:07.003Z,3.05
2018-01-15T03:58:37.568Z,4.32
2018-01-15T04:01:06.978Z,10.88
2018-01-15T04:03:36.260Z,4.80
2018-01-15T04:06:05.561Z,7.60
2018-01-15T04:08:36.687Z,3.42
2018-01-15T04:11:06.329Z,3.85
2018-01-15T04:13:36.532Z,5.70
2018-01-15T04:16:05.823Z,4.40
2018-01-15T04:18:35.761Z,7.32
2018-01-15T04:21:06.297Z,2.20
2018-01-15T04:23:35.944Z,2.53
2018-01-15T04:26:06.125Z,4.30
2018-01-15T04:28:36.993Z,2.13
2018-01-15T04:31:06.414Z,4.20
2018-01-15T04:33:37.656Z,2.20
2018-01-15T04:36:08.481Z,2.62
2018-01-15T04:38:39.659Z,2.00
2018-01-15T04:41:11.027Z,2.03
2018-01-15T04:43:40.585Z,2.10
2018-01-15T04:46:10.110Z,1.45
2018-01-15T04:48:40.638Z,2.58
2018-01-15T04:51:10.118Z,2.30
2018-01-15T04:53:40.870Z,3.15
2018-01-15T04:56:11.217Z,3.28
2018-01-15T04:58:40.733Z,3.53
2018-01-15T05:01:10.597Z,2.40
2018-01-15T05:03:41.587Z,4.27
2018-01-15T05:06:13.093Z,7.80
2018-01-15T05:08:43.414Z,4.00
2018-01-15T05:11:13.471Z,2.35
2018-01-15T05:13:42.667Z,2.20
2018-01-15T05:16:12.341Z,3.53
2018-01-15T05:18:45.477Z,2.42
2018-01-15T05:21:15.291Z,1.87
2018-01-15T05:23:45.004Z,2.17
2018-01-15T05:26:15.036Z,2.37
2018-01-15T05:28:44.534Z,2.33
2018-01-15T05:31:15.152Z,4.20
2018-01-15T05:33:45.615Z,2.62
2018-01-15T05:36:15.588Z,3.05
2018-01-15T05:38:46.510Z,2.17
2018-01-15T05:41:15.983Z,2.17
2018-01-15T05:43:46.372Z,2.00
2018-01-15T05:46:18.805Z,2.10
2018-01-15T05:48:49.123Z,4.60
2018-01-15T05:51:19.153Z,2.13
2018-01-15T05:53:48.779Z,2.63
2018-01-15T05:56:18.676Z,3.47
2018-01-15T05:58:48.282Z,5.17
2018-01-15T06:01:17.708Z,1.90
2018-01-15T06:03:49.448Z,2.43
2018-01-15T06:06:18.920Z,4.00
2018-01-15T06:08:49.877Z,2.30
2018-01-15T06:11:19.606Z,3.83
2018-01-15T06:13:50.103Z,3.47
2018-01-15T06:16:21.492Z,2.80
2018-01-15T06:18:53.721Z,8.50
2018-01-15T06:21:23.087Z,3.08
2018-01-15T06:23:54.844Z,2.77
2018-01-15T06:26:24.491Z,2.73
2018-01-15T06:28:55.807Z,3.20
2018-01-15T06:31:27.127Z,1.60
2018-01-15T06:33:57.513Z,3.70
2018-01-15T06:36:28.057Z,2.87
2018-01-15T06:38:57.647Z,3.80
2018-01-15T06:41:28.173Z,3.10
2018-01-15T06:43:58.089Z,3.70
2018-01-15T06:46:27.985Z,2.10
2018-01-15T06:48:57.716Z,2.50
2018-01-15T06:51:27.112Z,2.08
2018-01-15T06:53:56.701Z,2.70
2018-01-15T06:56:26.006Z,4.50
2018-01-15T06:58:55.244Z,4.47
2018-01-15T07:01:24.692Z,3.30
2018-01-15T07:03:54.457Z,3.80
2018-01-15T07:06:24.058Z,2.53
2018-01-15T07:08:53.250Z,3.30
2018-01-15T07:11:22.683Z,2.28
2018-01-15T07:13:52.514Z,1.80
2018-01-15T07:16:22.827Z,2.67
2018-01-15T07:18:52.952Z,2.10
2018-01-15T07:21:22.184Z,3.12
2018-01-15T07:23:52.403Z,2.67
2018-01-15T07:26:21.922Z,2.00
2018-01-15T07:28:51.550Z,2.60
2018-01-15T07:31:23.728Z,2.10
2018-01-15T07:33:53.094Z,2.65
2018-01-15T07:36:23.059Z,1.70
2018-01-15T07:38:52.870Z,1.67
2018-01-15T07:41:22.512Z,1.87
2018-01-15T07:43:52.964Z,2.10
2018-01-15T07:46:22.407Z,1.67
2018-01-15T07:48:53.053Z,2.30
2018-01-15T07:51:22.629Z,1.50
2018-01-15T07:53:54.417Z,1.80
2018-01-15T07:56:23.632Z,1.65
2018-01-15T07:58:54.084Z,2.20
2018-01-15T08:01:23.904Z,1.25
2018-01-15T08:03:53.367Z,1.50
2018-01-15T08:06:23.734Z,1.70
2018-01-15T08:08:53.580Z,1.67
2018-01-15T08:11:23.625Z,1.50
2018-01-15T08:13:53.018Z,1.87
2018-01-15T08:16:23.357Z,1.80
2018-01-15T08:18:53.295Z,1.52
2018-01-15T08:21:23.353Z,1.20
2018-01-15T08:23:53.118Z,1.95
2018-01-15T08:26:22.641Z,1.40
2018-01-15T08:28:52.155Z,1.23
2018-01-15T08:31:21.835Z,2.20
2018-01-15T08:33:51.553Z,1.60
2018-01-15T08:36:20.752Z,1.65
2018-01-15T08:38:50.821Z,1.52
2018-01-15T08:41:20.273Z,1.52
2018-01-15T08:43:50.444Z,1.80
2018-01-15T08:46:20.567Z,1.65
2018-01-15T08:48:50.681Z,1.60
2018-01-15T08:51:20.348Z,1.50
2018-01-15T08:53:50.150Z,1.75
2018-01-15T08:56:20.912Z,1.30
2018-01-15T08:58:51.146Z,1.73
2018-01-15T09:01:21.086Z,1.85
2018-01-15T09:03:50.825Z,1.45
2018-01-15T09:06:21.168Z,1.48
2018-01-15T09:08:50.393Z,1.70
2018-01-15T09:11:20.559Z,1.30
2018-01-15T09:13:49.862Z,1.10
2018-01-15T09:16:19.744Z,1.48
2018-01-15T09:18:49.155Z,1.35
2018-01-15T09:21:19.317Z,1.62
2018-01-15T09:23:48.779Z,1.62
2018-01-15T09:26:19.162Z,1.40
2018-01-15T09:28:48.692Z,1.20
2018-01-15T09:31:18.547Z,1.10
2018-01-15T09:33:47.908Z,1.25
2018-01-15T09:36:17.895Z,1.50
2018-01-15T09:38:48.125Z,1.00
2018-01-15T09:41:17.243Z,1.10
2018-01-15T09:43:46.350Z,1.45
2018-01-15T09:46:15.493Z,1.30
2018-01-15T09:48:44.989Z,1.00
2018-01-15T09:51:14.391Z,1.08
2018-01-15T09:53:45.261Z,1.05
2018-01-15T09:56:14.882Z,1.00
2018-01-15T09:58:44.126Z,1.65
2018-01-15T10:01:14.675Z,1.20
2018-01-15T10:03:44.258Z,1.12
2018-01-15T10:06:15.020Z,1.35
2018-01-15T10:08:44.583Z,1.27
2018-01-15T10:11:14.711Z,1.40
2018-01-15T10:13:43.932Z,1.15
2018-01-15T10:16:13.914Z,1.30
2018-01-15T10:18:43.011Z,1.05
2018-01-15T10:21:12.354Z,1.00
2018-01-15T10:23:42.399Z,1.17
2018-01-15T10:26:11.684Z,1.37
2018-01-15T10:28:41.033Z,1.30
2018-01-15T10:31:11.050Z,1.10
2018-01-15T10:33:40.507Z,1.37
2018-01-15T10:36:10.244Z,1.00
2018-01-15T10:38:39.486Z,1.23
2018-01-15T10:41:10.278Z,1.20
2018-01-15T10:43:40.859Z,1.10
2018-01-15T10:46:10.997Z,1.10
2018-01-15T10:48:40.340Z,1.40
2018-01-15T10:51:09.798Z,1.33
2018-01-15T10:53:38.960Z,1.05
2018-01-15T10:56:09.170Z,1.58
2018-01-15T10:58:39.940Z,0.90
2018-01-15T11:01:14.631Z,1.00
2018-01-15T11:03:44.921Z,1.17
2018-01-15T11:06:14.250Z,1.23
2018-01-15T11:08:44.167Z,1.33
2018-01-15T11:11:14.026Z,1.15
2018-01-15T11:13:44.330Z,1.00
2018-01-15T11:16:14.583Z,0.90
2018-01-15T11:18:44.095Z,1.10
2018-01-15T11:21:13.797Z,1.00
2018-01-15T11:23:43.291Z,1.20
2018-01-15T11:26:12.798Z,1.15
2018-01-15T11:28:41.944Z,1.85
2018-01-15T11:31:12.178Z,1.20
2018-01-15T11:33:42.729Z,1.58
2018-01-15T11:36:12.037Z,1.30
2018-01-15T11:38:42.763Z,1.25
2018-01-15T11:41:12.481Z,1.45
2018-01-15T11:43:41.796Z,1.40
2018-01-15T11:46:11.512Z,1.00
2018-01-15T11:48:40.830Z,1.00
2018-01-15T11:51:11.421Z,1.37
2018-01-15T11:53:41.245Z,1.23
2018-01-15T11:56:11.131Z,1.30
2018-01-15T11:58:40.648Z,1.00
2018-01-15T12:01:11.642Z,1.10
2018-01-15T12:03:40.928Z,1.02
2018-01-15T12:06:11.212Z,1.25
2018-01-15T12:08:40.498Z,1.77
2018-01-15T12:11:10.548Z,1.20
2018-01-15T12:13:40.127Z,1.20
2018-01-15T12:16:09.427Z,1.12
2018-01-15T12:18:39.835Z,0.90
2018-01-15T12:21:10.304Z,1.70
2018-01-15T12:23:39.571Z,0.98
2018-01-15T12:26:08.792Z,1.08
2018-01-15T12:28:37.978Z,1.20
2018-01-15T12:31:08.291Z,1.00
2018-01-15T12:33:39.973Z,1.20
2018-01-15T12:36:09.130Z,1.00
2018-01-15T12:38:39.157Z,1.30
2018-01-15T12:41:08.320Z,1.10
2018-01-15T12:43:37.722Z,1.23
2018-01-15T12:46:07.249Z,1.50
2018-01-15T12:48:37.238Z,1.40
2018-01-15T12:51:06.511Z,1.05
2018-01-15T12:53:35.722Z,1.20
2018-01-15T12:56:04.978Z,1.05
2018-01-15T12:58:35.096Z,1.20
2018-01-15T13:01:05.417Z,1.17
2018-01-15T13:03:34.737Z,1.92
2018-01-15T13:06:09.027Z,1.00
2018-01-15T13:11:49.706Z,1.10
2018-01-15T13:14:19.122Z,1.40
2018-01-15T13:16:48.817Z,1.40
2018-01-15T13:19:20.138Z,1.10
2018-01-15T13:21:50.178Z,1.25
2018-01-15T13:24:19.916Z,1.40
2018-01-15T13:26:49.394Z,1.15
2018-01-15T13:29:19.203Z,1.15
2018-01-15T13:31:49.757Z,1.48
2018-01-15T13:34:19.522Z,1.27
2018-01-15T13:36:49.537Z,1.42
2018-01-15T13:39:19.510Z,1.35
2018-01-15T13:41:49.222Z,1.37
2018-01-15T13:44:19.553Z,1.12
2018-01-15T13:46:49.128Z,1.00
2018-01-15T13:49:19.222Z,1.17
2018-01-15T13:51:49.758Z,1.12
2018-01-15T13:54:19.303Z,1.30
2018-01-15T13:56:49.903Z,1.20
2018-01-15T13:59:20.244Z,1.20
2018-01-15T14:01:49.957Z,0.93
2018-01-15T14:04:19.636Z,1.10
2018-01-15T14:06:50.046Z,1.12
2018-01-15T14:09:20.541Z,1.00
2018-01-15T14:11:50.671Z,0.95
2018-01-15T14:14:20.329Z,1.35
2018-01-15T14:16:52.232Z,1.17
2018-01-15T14:19:21.982Z,1.20
2018-01-15T14:21:52.339Z,1.25
2018-01-15T14:24:22.266Z,1.02
2018-01-15T14:26:51.763Z,1.08
2018-01-15T14:29:21.283Z,1.10
2018-01-15T14:31:50.953Z,1.27
2018-01-15T14:34:20.300Z,1.02
2018-01-15T14:36:49.789Z,1.20
2018-01-15T14:39:19.998Z,1.17
2018-01-15T14:41:49.217Z,1.00
2018-01-15T14:44:18.842Z,1.10
2018-01-15T14:46:48.529Z,1.50
2018-01-15T14:49:18.517Z,1.27
2018-01-15T14:51:49.056Z,0.98
2018-01-15T14:54:18.585Z,1.20
2018-01-15T14:56:48.292Z,1.00
2018-01-15T14:59:18.197Z,1.10
2018-01-15T15:01:48.486Z,1.40
2018-01-15T15:04:18.044Z,1.20
2018-01-15T15:06:47.632Z,1.15
2018-01-15T15:09:17.297Z,1.25
2018-01-15T15:11:47.410Z,1.30
2018-01-15T15:14:17.306Z,1.50
2018-01-15T15:16:47.785Z,1.42
2018-01-15T15:19:18.817Z,1.45
2018-01-15T15:21:48.569Z,1.10
2018-01-15T15:24:19.135Z,1.23
2018-01-15T15:26:50.833Z,1.10
2018-01-15T15:29:20.660Z,1.40
2018-01-15T15:31:50.176Z,1.50
2018-01-15T15:34:20.196Z,1.30
2018-01-15T15:36:49.841Z,1.48
2018-01-15T15:39:21.089Z,1.35
2018-01-15T15:41:50.434Z,1.40
2018-01-15T15:44:20.161Z,1.40
2018-01-15T15:46:50.445Z,1.27
2018-01-15T15:49:20.028Z,1.30
2018-01-15T15:51:50.996Z,1.67
2018-01-15T15:54:20.731Z,1.20
2018-01-15T15:56:51.716Z,1.30
2018-01-15T15:59:22.993Z,1.20
2018-01-15T16:01:52.331Z,1.40
2018-01-15T16:04:21.871Z,1.55
2018-01-15T16:06:51.747Z,1.33
2018-01-15T16:09:21.496Z,1.30
2018-01-15T16:11:51.586Z,1.40
2018-01-15T16:14:22.148Z,1.20
2018-01-15T16:16:53.222Z,1.50
2018-01-15T16:19:24.807Z,1.50
2018-01-15T16:22:06.287Z,1.30
2018-01-15T16:24:36.939Z,1.52
2018-01-15T16:27:06.622Z,1.60
2018-01-15T16:29:36.112Z,1.50
2018-01-15T16:32:08.394Z,1.58
2018-01-15T16:34:37.944Z,1.30
2018-01-15T16:37:07.646Z,1.20
2018-01-15T16:39:37.717Z,1.30
2018-01-15T16:42:07.419Z,1.60
2018-01-15T16:44:37.926Z,1.60
2018-01-15T16:47:07.502Z,1.60
2018-01-15T16:49:37.962Z,1.30
2018-01-15T16:52:07.623Z,1.65
2018-01-15T16:54:38.892Z,1.60
2018-01-15T16:57:08.585Z,1.20
2018-01-15T16:59:39.058Z,1.40
2018-01-15T17:02:08.885Z,1.50
2018-01-15T17:04:38.577Z,1.80
2018-01-15T17:07:10.325Z,1.00
2018-01-15T17:09:40.146Z,1.30
2018-01-15T17:12:10.211Z,1.47
2018-01-15T17:14:39.895Z,1.43
2018-01-15T17:17:11.027Z,1.30
2018-01-15T17:19:40.497Z,1.43
2018-01-15T17:22:11.018Z,1.43
2018-01-15T17:24:40.403Z,1.50
2018-01-15T17:27:10.576Z,1.13
2018-01-15T17:29:40.357Z,1.40
2018-01-15T17:32:10.151Z,1.37
2018-01-15T17:34:39.551Z,1.30
2018-01-15T17:37:09.922Z,1.20
2018-01-15T17:39:40.034Z,1.30
2018-01-15T17:42:09.600Z,1.50
2018-01-15T17:44:39.678Z,1.33
2018-01-15T17:47:09.526Z,1.40
2018-01-15T17:49:39.165Z,1.20
2018-01-15T17:52:08.498Z,1.60
2018-01-15T17:54:37.958Z,1.17
2018-01-15T17:57:07.365Z,1.20
2018-01-15T17:59:36.672Z,1.43
2018-01-15T18:02:05.875Z,1.27
2018-01-15T18:04:36.727Z,1.30
2018-01-15T18:07:06.271Z,1.37
2018-01-15T18:09:35.607Z,1.53
2018-01-15T18:12:05.414Z,1.43
2018-01-15T18:14:35.618Z,2.00
2018-01-15T18:17:06.011Z,1.70
2018-01-15T18:19:36.148Z,1.43
2018-01-15T18:22:05.809Z,1.70
2018-01-15T18:24:35.305Z,1.90
2018-01-15T18:27:05.748Z,1.30
2018-01-15T18:29:35.318Z,1.47
2018-01-15T18:32:05.044Z,1.40
2018-01-15T18:34:34.752Z,1.20
2018-01-15T18:37:04.702Z,1.20
2018-01-15T18:39:34.714Z,1.50
2018-01-15T18:42:05.460Z,1.40
2018-01-15T18:44:35.469Z,1.43
2018-01-15T18:47:04.719Z,1.53
2018-01-15T18:49:34.223Z,1.30
2018-01-15T18:52:03.849Z,1.40
2018-01-15T18:54:33.886Z,1.17
2018-01-15T18:57:03.522Z,1.17
2018-01-15T18:59:33.900Z,1.30
2018-01-15T19:02:03.887Z,1.33
2018-01-15T19:04:33.767Z,1.50
2018-01-15T19:07:04.957Z,1.50
2018-01-15T19:09:35.251Z,1.40
2018-01-15T19:12:04.852Z,1.80
2018-01-15T19:14:35.093Z,1.20
2018-01-15T19:17:05.476Z,1.43
2018-01-15T19:19:35.889Z,1.30
2018-01-15T19:22:05.605Z,1.60
2018-01-15T19:24:35.639Z,1.30
2018-01-15T19:27:06.280Z,1.47
2018-01-15T19:29:37.979Z,1.30
2018-01-15T19:32:07.888Z,1.20
2018-01-15T19:34:45.039Z,1.07
2018-01-15T19:37:16.682Z,1.00
2018-01-15T19:39:47.416Z,1.10
2018-01-15T19:42:16.832Z,1.03
2018-01-15T19:44:52.257Z,1.37
2018-01-15T19:47:27.554Z,1.37
2018-01-15T19:50:03.707Z,1.10
2018-01-15T19:52:38.773Z,1.23
2018-01-15T19:55:13.983Z,1.20
2018-01-15T19:57:49.493Z,0.80
2018-01-15T20:00:24.615Z,1.10
2018-01-15T20:03:00.662Z,1.03
2018-01-15T20:05:36.344Z,1.30
2018-01-15T20:08:13.744Z,1.33
2018-01-15T20:10:44.572Z,1.80
2018-01-15T20:13:14.902Z,1.30
2018-01-15T20:15:45.344Z,1.40
2018-01-15T20:18:14.721Z,1.40
2018-01-15T20:20:44.404Z,0.93
2018-01-15T20:23:14.091Z,0.97
2018-01-15T20:25:43.699Z,1.07
2018-01-15T20:28:13.186Z,1.20
2018-01-15T20:30:42.884Z,1.00
2018-01-15T20:33:13.074Z,1.13
2018-01-15T20:35:42.731Z,1.03
2018-01-15T20:38:12.290Z,1.00
2018-01-15T20:40:42.079Z,1.07
2018-01-15T20:43:12.116Z,1.00
2018-01-15T20:45:41.853Z,0.77
2018-01-15T20:48:11.412Z,0.70
2018-01-15T20:50:43.408Z,0.70
2018-01-15T20:53:13.153Z,1.10
2018-01-15T20:55:42.879Z,1.10
2018-01-15T20:58:12.765Z,1.13
2018-01-15T21:00:42.461Z,0.90
2018-01-15T21:03:13.279Z,1.60
2018-01-15T21:05:43.968Z,0.93
2018-01-15T21:08:13.661Z,1.20
2018-01-15T21:10:43.488Z,1.10
2018-01-15T21:13:13.322Z,0.83
2018-01-15T21:15:43.889Z,1.30
2018-01-15T21:18:13.756Z,1.33
2018-01-15T21:20:43.424Z,1.17
2018-01-15T21:23:12.875Z,0.77
2018-01-15T21:25:44.293Z,1.53
2018-01-15T21:28:13.564Z,1.10
2018-01-15T21:30:43.220Z,1.20
2018-01-15T21:33:13.492Z,0.90
2018-01-15T21:35:43.384Z,0.90
2018-01-15T21:38:13.504Z,1.10
2018-01-15T21:40:43.649Z,1.00
2018-01-15T21:43:14.013Z,0.93
2018-01-15T21:45:43.710Z,0.80
2018-01-15T21:48:12.826Z,1.10
2018-01-15T21:50:44.910Z,1.03
2018-01-15T21:53:15.254Z,1.13
2018-01-15T21:55:45.107Z,0.90
2018-01-15T21:58:15.284Z,1.00
2018-01-15T22:00:44.961Z,0.90
2018-01-15T22:03:14.673Z,0.93
2018-01-15T22:05:44.904Z,1.00
2018-01-15T22:08:15.221Z,1.10
2018-01-15T22:10:46.078Z,0.90
2018-01-15T22:13:16.080Z,0.90
2018-01-15T22:15:45.349Z,0.90
2018-01-15T22:18:14.971Z,1.10
2018-01-15T22:20:44.615Z,1.03
2018-01-15T22:23:13.985Z,0.93
2018-01-15T22:25:43.279Z,1.10
2018-01-15T22:28:13.460Z,1.03
2018-01-15T22:30:43.335Z,0.90
2018-01-15T22:33:13.726Z,1.47
2018-01-15T22:35:43.411Z,1.20
2018-01-15T22:38:13.555Z,0.97
2018-01-15T22:40:43.824Z,1.00
2018-01-15T22:43:13.836Z,0.97
2018-01-15T22:45:43.272Z,1.00
2018-01-15T22:48:12.863Z,1.50
2018-01-15T22:50:42.489Z,1.10
2018-01-15T22:53:12.114Z,1.20
2018-01-15T22:55:41.748Z,0.97
2018-01-15T22:58:12.801Z,1.10
2018-01-15T23:00:42.126Z,0.90
2018-01-15T23:03:11.859Z,1.50
2018-01-15T23:05:41.378Z,1.00
2018-01-15T23:08:10.622Z,1.00
2018-01-15T23:10:40.199Z,1.20
2018-01-15T23:13:10.374Z,1.00
2018-01-15T23:15:41.983Z,1.00
2018-01-15T23:18:13.159Z,0.93
2018-01-15T23:20:42.578Z,1.10
2018-01-15T23:23:11.753Z,1.10
2018-01-15T23:25:41.589Z,0.90
2018-01-15T23:28:10.824Z,0.80
2018-01-15T23:30:41.142Z,0.90
2018-01-15T23:33:11.593Z,1.10
2018-01-15T23:35:41.402Z,1.10
2018-01-15T23:38:10.782Z,1.07
2018-01-15T23:40:40.543Z,1.03
2018-01-15T23:43:09.892Z,0.90
2018-01-15T23:45:40.412Z,1.00
2018-01-15T23:48:10.107Z,0.83
2018-01-15T23:50:41.074Z,0.90
2018-01-15T23:53:10.778Z,1.30
2018-01-15T23:55:41.511Z,0.73
2018-01-15T23:58:12.707Z,1.10
